createdAt,value
2019-03-20T00:00:18.217Z,100.00
2019-03-20T00:02:46.860Z,100.00
2019-03-20T00:05:15.484Z,100.00
2019-03-20T00:07:44.126Z,100.00
2019-03-20T00:10:12.764Z,100.00
2019-03-20T00:12:41.437Z,100.00
2019-03-20T00:15:15.161Z,100.00
2019-03-20T00:17:43.724Z,100.00
2019-03-20T00:20:14.011Z,100.00
2019-03-20T00:22:43.368Z,100.00
2019-03-20T00:25:15.486Z,100.00
2019-03-20T00:27:44.057Z,100.00
2019-03-20T00:30:19.459Z,100.00
2019-03-20T00:32:48.094Z,100.00
2019-03-20T00:35:16.724Z,100.00
2019-03-20T00:37:45.359Z,100.00
2019-03-20T00:40:15.969Z,100.00
2019-03-20T00:42:44.712Z,100.00
2019-03-20T00:45:22.041Z,100.00
2019-03-20T00:47:50.680Z,100.00
2019-03-20T00:50:20.012Z,100.00
2019-03-20T00:52:48.642Z,100.00
2019-03-20T00:55:18.228Z,100.00
2019-03-20T00:57:47.246Z,100.00
2019-03-20T01:00:18.499Z,100.00
2019-03-20T01:02:47.047Z,100.00
2019-03-20T01:05:16.395Z,100.00
2019-03-20T01:07:45.532Z,100.00
2019-03-20T01:10:21.583Z,100.00
2019-03-20T01:12:50.660Z,100.00
2019-03-20T01:15:19.289Z,100.00
2019-03-20T01:17:47.956Z,100.00
2019-03-20T01:20:26.424Z,100.00
2019-03-20T01:22:55.053Z,100.00
2019-03-20T01:25:23.667Z,100.00
2019-03-20T01:27:52.290Z,100.00
2019-03-20T01:30:40.180Z,100.00
2019-03-20T01:33:11.062Z,100.00
2019-03-20T01:35:39.791Z,100.00
2019-03-20T01:38:09.124Z,100.00
2019-03-20T01:40:40.099Z,100.00
2019-03-20T01:43:08.033Z,100.00
2019-03-20T01:45:36.604Z,100.00
2019-03-20T01:48:05.341Z,100.00
2019-03-20T01:50:34.041Z,100.00
2019-03-20T01:53:02.679Z,100.00
2019-03-20T01:55:31.310Z,100.00
2019-03-20T01:57:59.986Z,100.00
2019-03-20T02:00:28.614Z,100.00
2019-03-20T02:02:57.302Z,100.00
2019-03-20T02:05:35.123Z,100.00
2019-03-20T02:07:56.199Z,100.00
2019-03-20T02:10:24.829Z,100.00
2019-03-20T02:12:53.325Z,100.00
2019-03-20T02:15:21.927Z,100.00
2019-03-20T02:17:50.553Z,100.00
2019-03-20T02:20:20.573Z,100.00
2019-03-20T02:22:49.202Z,100.00
2019-03-20T02:25:17.870Z,100.00
2019-03-20T02:27:46.490Z,100.00
2019-03-20T02:30:17.895Z,100.00
2019-03-20T02:32:46.517Z,100.00
2019-03-20T02:35:15.577Z,100.00
2019-03-20T02:37:44.211Z,100.00
2019-03-20T02:40:15.917Z,100.00
2019-03-20T02:42:44.548Z,100.00
2019-03-20T02:45:16.727Z,100.00
2019-03-20T02:47:45.338Z,100.00
2019-03-20T02:50:15.338Z,100.00
2019-03-20T02:52:43.991Z,100.00
2019-03-20T02:55:13.047Z,100.00
2019-03-20T02:57:41.689Z,100.00
2019-03-20T03:00:23.074Z,100.00
2019-03-20T03:02:51.709Z,100.00
2019-03-20T03:05:20.495Z,100.00
2019-03-20T03:07:49.127Z,100.00
2019-03-20T03:10:18.470Z,100.00
2019-03-20T03:12:47.200Z,100.00
2019-03-20T03:15:16.375Z,100.00
2019-03-20T03:17:45.144Z,100.00
2019-03-20T03:20:14.895Z,100.00
2019-03-20T03:22:43.629Z,100.00
2019-03-20T03:25:13.700Z,100.00
2019-03-20T03:27:42.341Z,100.00
2019-03-20T03:30:15.685Z,100.00
2019-03-20T03:32:44.379Z,100.00
2019-03-20T03:35:18.300Z,100.00
2019-03-20T03:37:43.802Z,100.00
2019-03-20T03:40:14.195Z,100.00
2019-03-20T03:42:42.843Z,100.00
2019-03-20T03:45:13.455Z,100.00
2019-03-20T03:47:42.099Z,100.00
2019-03-20T03:50:11.308Z,100.00
2019-03-20T03:52:40.040Z,100.00
2019-03-20T03:55:13.177Z,100.00
2019-03-20T03:57:41.875Z,100.00
2019-03-20T04:00:18.218Z,100.00
2019-03-20T04:02:46.863Z,100.00
2019-03-20T04:05:15.662Z,100.00
2019-03-20T04:07:44.383Z,100.00
2019-03-20T04:10:16.741Z,100.00
2019-03-20T04:12:45.411Z,100.00
2019-03-20T04:15:15.054Z,100.00
2019-03-20T04:17:43.748Z,100.00
2019-03-20T04:20:17.939Z,100.00
2019-03-20T04:22:46.522Z,100.00
2019-03-20T04:25:15.164Z,100.00
2019-03-20T04:27:43.788Z,100.00
2019-03-20T04:30:17.374Z,100.00
2019-03-20T04:32:46.045Z,100.00
2019-03-20T04:35:14.775Z,100.00
2019-03-20T04:37:43.341Z,100.00
2019-03-20T04:40:14.132Z,100.00
2019-03-20T04:42:42.783Z,100.00
2019-03-20T04:45:13.308Z,100.00
2019-03-20T04:47:41.933Z,100.00
2019-03-20T04:50:15.369Z,100.00
2019-03-20T04:52:44.038Z,100.00
2019-03-20T04:55:12.674Z,100.00
2019-03-20T04:57:41.342Z,100.00
2019-03-20T05:00:15.694Z,100.00
2019-03-20T05:02:45.246Z,100.00
2019-03-20T05:05:15.182Z,100.00
2019-03-20T05:07:43.865Z,100.00
2019-03-20T05:10:14.200Z,100.00
2019-03-20T05:12:42.825Z,100.00
2019-03-20T05:15:12.694Z,100.00
2019-03-20T05:17:41.522Z,100.00
2019-03-20T05:20:15.548Z,100.00
2019-03-20T05:22:44.119Z,100.00
2019-03-20T05:25:12.781Z,100.00
2019-03-20T05:27:41.460Z,100.00
2019-03-20T05:30:14.267Z,100.00
2019-03-20T05:32:42.897Z,100.00
2019-03-20T05:35:11.523Z,100.00
2019-03-20T05:37:40.213Z,100.00
2019-03-20T05:40:15.900Z,100.00
2019-03-20T05:42:44.587Z,100.00
2019-03-20T05:45:16.142Z,100.00
2019-03-20T05:47:44.751Z,100.00
2019-03-20T05:50:17.215Z,100.00
2019-03-20T05:52:45.888Z,100.00
2019-03-20T05:55:14.932Z,100.00
2019-03-20T05:57:43.635Z,100.00
2019-03-20T06:00:21.104Z,100.00
2019-03-20T06:02:49.968Z,100.00
2019-03-20T06:05:18.818Z,100.00
2019-03-20T06:07:47.536Z,100.00
2019-03-20T06:10:17.514Z,100.00
2019-03-20T06:12:46.425Z,100.00
2019-03-20T06:15:15.454Z,100.00
2019-03-20T06:17:46.697Z,100.00
2019-03-20T06:20:15.260Z,100.00
2019-03-20T06:22:44.027Z,100.00
2019-03-20T06:25:14.140Z,100.00
2019-03-20T06:27:45.195Z,100.00
2019-03-20T06:30:15.990Z,100.00
2019-03-20T06:32:44.720Z,100.00
2019-03-20T06:35:14.973Z,100.00
2019-03-20T06:37:43.717Z,100.00
2019-03-20T06:40:16.253Z,100.00
2019-03-20T06:42:45.032Z,100.00
2019-03-20T06:45:18.392Z,100.00
2019-03-20T06:47:47.079Z,100.00
2019-03-20T06:50:21.803Z,100.00
2019-03-20T06:52:51.466Z,100.00
2019-03-20T06:55:20.141Z,100.00
2019-03-20T06:57:49.050Z,100.00
2019-03-20T07:00:37.940Z,100.00
2019-03-20T07:03:15.189Z,100.00
2019-03-20T07:06:04.301Z,100.00
2019-03-20T07:08:35.886Z,100.00
2019-03-20T07:11:06.681Z,100.00
2019-03-20T07:13:35.364Z,100.00
2019-03-20T07:16:04.592Z,100.00
2019-03-20T07:18:33.444Z,100.00
2019-03-20T07:21:02.334Z,100.00
2019-03-20T07:23:31.130Z,100.00
2019-03-20T07:25:59.945Z,88.36
2019-03-20T07:28:28.820Z,84.03
2019-03-20T07:30:57.596Z,76.89
2019-03-20T07:33:26.195Z,72.71
2019-03-20T07:35:54.995Z,69.83
2019-03-20T07:38:23.699Z,65.18
2019-03-20T07:40:55.776Z,64.51
2019-03-20T07:43:26.862Z,62.08
2019-03-20T07:45:54.960Z,64.23
2019-03-20T07:48:24.951Z,62.67
2019-03-20T07:50:55.535Z,58.72
2019-03-20T07:53:24.763Z,54.64
2019-03-20T07:55:54.976Z,51.78
2019-03-20T07:58:24.564Z,55.66
2019-03-20T08:00:55.577Z,55.16
2019-03-20T08:03:24.749Z,60.65
2019-03-20T08:05:53.332Z,64.68
2019-03-20T08:08:21.918Z,68.03
2019-03-20T08:10:50.887Z,67.23
2019-03-20T08:13:19.466Z,65.24
2019-03-20T08:15:47.961Z,60.94
2019-03-20T08:18:16.828Z,57.40
2019-03-20T08:20:45.546Z,61.09
2019-03-20T08:23:14.191Z,56.70
2019-03-20T08:25:42.950Z,54.38
2019-03-20T08:28:14.964Z,53.98
2019-03-20T08:30:43.654Z,53.61
2019-03-20T08:33:15.044Z,53.62
2019-03-20T08:35:44.034Z,50.25
2019-03-20T08:38:18.531Z,47.00
2019-03-20T08:40:45.416Z,44.31
2019-03-20T08:43:19.626Z,40.25
2019-03-20T08:45:52.428Z,38.19
2019-03-20T08:48:21.214Z,39.98
2019-03-20T08:50:51.547Z,39.26
2019-03-20T08:53:27.733Z,38.68
2019-03-20T08:56:00.297Z,35.27
2019-03-20T08:58:31.493Z,33.39
2019-03-20T09:01:04.311Z,34.98
2019-03-20T09:03:35.858Z,32.63
2019-03-20T09:06:04.910Z,30.99
2019-03-20T09:08:38.766Z,32.68
2019-03-20T09:11:07.715Z,31.07
2019-03-20T09:13:41.798Z,30.71
2019-03-20T09:16:13.379Z,31.22
2019-03-20T09:18:43.805Z,28.80
2019-03-20T09:21:15.788Z,28.76
2019-03-20T09:23:44.609Z,26.77
2019-03-20T09:26:13.516Z,27.46
2019-03-20T09:28:42.602Z,30.88
2019-03-20T09:31:12.933Z,28.58
2019-03-20T09:33:44.444Z,28.20
2019-03-20T09:36:13.545Z,26.80
2019-03-20T09:38:43.727Z,24.67
2019-03-20T09:41:12.794Z,24.91
2019-03-20T09:43:41.817Z,24.96
2019-03-20T09:46:10.648Z,26.33
2019-03-20T09:48:39.530Z,24.80
2019-03-20T09:51:08.319Z,26.81
2019-03-20T09:53:36.888Z,25.23
2019-03-20T09:56:05.575Z,25.31
2019-03-20T09:58:34.242Z,27.29
2019-03-20T10:01:05.949Z,27.45
2019-03-20T10:03:34.483Z,25.25
2019-03-20T10:06:03.062Z,23.41
2019-03-20T10:08:31.536Z,27.27
2019-03-20T10:11:00.206Z,23.58
2019-03-20T10:13:28.762Z,24.29
2019-03-20T10:15:57.291Z,26.52
2019-03-20T10:18:25.857Z,25.52
2019-03-20T10:20:57.107Z,27.03
2019-03-20T10:23:25.680Z,29.17
2019-03-20T10:25:54.173Z,27.17
2019-03-20T10:28:22.848Z,27.50
2019-03-20T10:30:51.561Z,26.35
2019-03-20T10:33:20.222Z,26.41
2019-03-20T10:35:50.481Z,24.59
2019-03-20T10:38:19.205Z,25.16
2019-03-20T10:40:50.863Z,25.22
2019-03-20T10:43:19.472Z,26.07
2019-03-20T10:45:52.457Z,26.95
2019-03-20T10:48:21.712Z,26.69
2019-03-20T10:50:50.646Z,25.04
2019-03-20T10:53:19.392Z,24.41
2019-03-20T10:55:48.159Z,25.54
2019-03-20T10:58:16.889Z,26.15
2019-03-20T11:00:45.559Z,23.66
2019-03-20T11:03:14.271Z,23.98
2019-03-20T11:05:42.942Z,26.50
2019-03-20T11:08:13.035Z,26.04
2019-03-20T11:10:42.691Z,24.63
2019-03-20T11:13:12.518Z,24.90
2019-03-20T11:15:42.831Z,24.27
2019-03-20T11:18:11.543Z,26.49
2019-03-20T11:20:40.580Z,26.82
2019-03-20T11:23:09.312Z,27.75
2019-03-20T11:25:38.386Z,27.47
2019-03-20T11:28:07.281Z,27.98
2019-03-20T11:30:36.291Z,25.31
2019-03-20T11:33:05.204Z,25.19
2019-03-20T11:35:36.747Z,26.93
2019-03-20T11:38:05.599Z,27.14
2019-03-20T11:40:36.754Z,26.88
2019-03-20T11:43:06.022Z,26.38
2019-03-20T11:45:34.698Z,24.99
2019-03-20T11:48:03.423Z,26.15
2019-03-20T11:50:42.075Z,26.19
2019-03-20T11:53:11.064Z,23.90
2019-03-20T11:55:39.735Z,24.85
2019-03-20T11:58:08.626Z,24.65
2019-03-20T12:00:37.500Z,24.15
2019-03-20T12:03:06.562Z,25.02
2019-03-20T12:05:35.223Z,25.58
2019-03-20T12:08:03.978Z,26.95
2019-03-20T12:10:34.631Z,28.72
2019-03-20T12:13:03.302Z,27.71
2019-03-20T12:15:32.076Z,28.38
2019-03-20T12:18:00.845Z,27.45
2019-03-20T12:20:29.486Z,27.58
2019-03-20T12:22:58.271Z,26.06
2019-03-20T12:25:34.514Z,26.28
2019-03-20T12:28:03.307Z,25.24
2019-03-20T12:30:33.918Z,23.17
2019-03-20T12:33:02.673Z,27.86
2019-03-20T12:35:36.993Z,27.85
2019-03-20T12:38:14.231Z,29.87
2019-03-20T12:40:36.128Z,29.16
2019-03-20T12:43:05.252Z,27.26
2019-03-20T12:45:39.139Z,26.43
2019-03-20T12:48:08.806Z,26.82
2019-03-20T12:50:37.557Z,25.64
2019-03-20T12:53:14.921Z,25.46
2019-03-20T12:55:43.716Z,28.21
2019-03-20T12:58:12.624Z,28.02
2019-03-20T13:00:41.376Z,27.48
2019-03-20T13:03:10.064Z,27.34
2019-03-20T13:05:38.862Z,26.64
2019-03-20T13:08:07.444Z,26.90
2019-03-20T13:10:36.039Z,25.63
2019-03-20T13:13:04.696Z,26.23
2019-03-20T13:15:36.407Z,27.92
2019-03-20T13:18:07.852Z,26.88
2019-03-20T13:20:39.891Z,26.92
2019-03-20T13:23:14.236Z,26.74
2019-03-20T13:25:42.969Z,26.21
2019-03-20T13:28:11.751Z,27.58
2019-03-20T13:30:52.122Z,28.85
2019-03-20T13:33:25.699Z,27.78
2019-03-20T13:35:54.166Z,29.24
2019-03-20T13:38:22.944Z,29.28
2019-03-20T13:40:54.040Z,29.58
2019-03-20T13:43:22.791Z,28.86
2019-03-20T13:45:51.433Z,29.78
2019-03-20T13:48:20.068Z,30.93
2019-03-20T13:50:51.236Z,32.74
2019-03-20T13:53:20.004Z,32.64
2019-03-20T13:55:48.876Z,32.15
2019-03-20T13:58:17.438Z,31.91
2019-03-20T14:00:46.384Z,32.49
2019-03-20T14:03:15.067Z,33.09
2019-03-20T14:05:43.659Z,33.06
2019-03-20T14:08:12.451Z,34.54
2019-03-20T14:10:50.370Z,35.13
2019-03-20T14:13:11.544Z,35.35
2019-03-20T14:15:40.350Z,35.09
2019-03-20T14:18:08.983Z,35.52
2019-03-20T14:20:37.738Z,36.44
2019-03-20T14:23:06.500Z,36.88
2019-03-20T14:25:35.514Z,37.88
2019-03-20T14:28:04.333Z,36.05
2019-03-20T14:30:34.201Z,37.38
2019-03-20T14:33:02.902Z,38.26
2019-03-20T14:35:31.543Z,38.56
2019-03-20T14:38:00.187Z,38.97
2019-03-20T14:40:36.026Z,37.69
2019-03-20T14:43:02.980Z,39.69
2019-03-20T14:45:31.670Z,43.00
2019-03-20T14:48:00.341Z,45.76
2019-03-20T14:50:29.870Z,46.97
2019-03-20T14:52:58.503Z,45.09
2019-03-20T14:55:27.176Z,44.86
2019-03-20T14:57:55.877Z,45.80
2019-03-20T15:00:26.262Z,46.48
2019-03-20T15:02:54.995Z,48.72
2019-03-20T15:05:26.654Z,51.86
2019-03-20T15:07:55.386Z,61.60
2019-03-20T15:10:28.554Z,73.09
2019-03-20T15:12:57.419Z,82.27
2019-03-20T15:15:31.716Z,84.44
2019-03-20T15:18:00.352Z,84.16
2019-03-20T15:20:28.988Z,87.81
2019-03-20T15:22:57.668Z,91.67
2019-03-20T15:25:26.300Z,93.50
2019-03-20T15:27:54.941Z,94.76
2019-03-20T15:30:24.777Z,98.93
2019-03-20T15:32:53.424Z,100.00
2019-03-20T15:35:22.060Z,100.00
2019-03-20T15:37:50.707Z,100.00
2019-03-20T15:40:21.052Z,100.00
2019-03-20T15:42:52.845Z,100.00
2019-03-20T15:45:21.482Z,100.00
2019-03-20T15:47:50.127Z,100.00
2019-03-20T15:50:26.347Z,100.00
2019-03-20T15:52:54.991Z,100.00
2019-03-20T15:55:31.363Z,100.00
2019-03-20T15:58:00.110Z,100.00
2019-03-20T16:00:28.791Z,100.00
2019-03-20T16:03:00.340Z,100.00
2019-03-20T16:05:28.991Z,100.00
2019-03-20T16:07:57.628Z,100.00
2019-03-20T16:10:26.274Z,100.00
2019-03-20T16:12:54.908Z,100.00
2019-03-20T16:15:24.464Z,100.00
2019-03-20T16:17:53.121Z,100.00
2019-03-20T16:20:24.808Z,100.00
2019-03-20T16:22:53.488Z,100.00
2019-03-20T16:25:25.130Z,100.00
2019-03-20T16:27:53.817Z,100.00
2019-03-20T16:30:26.279Z,100.00
2019-03-20T16:32:57.877Z,100.00
2019-03-20T16:35:26.611Z,100.00
2019-03-20T16:37:55.245Z,100.00
2019-03-20T16:40:35.221Z,100.00
2019-03-20T16:43:03.874Z,100.00
2019-03-20T16:45:35.418Z,100.00
2019-03-20T16:48:04.604Z,100.00
2019-03-20T16:50:33.160Z,100.00
2019-03-20T16:53:01.852Z,100.00
2019-03-20T16:55:30.480Z,100.00
2019-03-20T16:57:59.119Z,100.00
2019-03-20T17:00:32.270Z,100.00
2019-03-20T17:03:00.961Z,100.00
2019-03-20T17:05:32.992Z,100.00
2019-03-20T17:08:01.701Z,100.00
2019-03-20T17:10:33.222Z,100.00
2019-03-20T17:13:02.208Z,100.00
2019-03-20T17:15:33.380Z,100.00
2019-03-20T17:18:02.144Z,100.00
2019-03-20T17:20:30.782Z,100.00
2019-03-20T17:22:59.439Z,100.00
2019-03-20T17:25:28.485Z,100.00
2019-03-20T17:27:57.338Z,100.00
2019-03-20T17:30:28.890Z,100.00
2019-03-20T17:32:57.478Z,100.00
2019-03-20T17:35:29.153Z,100.00
2019-03-20T17:37:57.832Z,100.00
2019-03-20T17:40:27.579Z,100.00
2019-03-20T17:42:56.309Z,100.00
2019-03-20T17:45:28.891Z,100.00
2019-03-20T17:47:57.583Z,100.00
2019-03-20T17:50:31.091Z,100.00
2019-03-20T17:52:59.739Z,100.00
2019-03-20T17:55:28.622Z,100.00
2019-03-20T17:57:57.557Z,100.00
2019-03-20T18:00:40.334Z,100.00
2019-03-20T18:03:09.382Z,100.00
2019-03-20T18:05:38.425Z,100.00
2019-03-20T18:08:08.068Z,100.00
2019-03-20T18:10:36.770Z,100.00
2019-03-20T18:13:06.555Z,100.00
2019-03-20T18:15:35.404Z,100.00
2019-03-20T18:18:04.178Z,100.00
2019-03-20T18:20:32.813Z,100.00
2019-03-20T18:23:01.379Z,100.00
2019-03-20T18:25:30.017Z,100.00
2019-03-20T18:27:58.695Z,100.00
2019-03-20T18:30:32.128Z,100.00
2019-03-20T18:33:00.696Z,100.00
2019-03-20T18:35:29.367Z,100.00
2019-03-20T18:37:58.023Z,100.00
2019-03-20T18:40:27.457Z,100.00
2019-03-20T18:42:56.143Z,100.00
2019-03-20T18:45:25.946Z,100.00
2019-03-20T18:47:54.685Z,100.00
2019-03-20T18:50:27.047Z,100.00
2019-03-20T18:52:55.689Z,100.00
2019-03-20T18:55:27.057Z,100.00
2019-03-20T18:57:55.805Z,100.00
2019-03-20T19:00:32.171Z,100.00
2019-03-20T19:03:07.337Z,100.00
2019-03-20T19:05:41.773Z,100.00
2019-03-20T19:08:10.583Z,100.00
2019-03-20T19:10:39.285Z,100.00
2019-03-20T19:13:08.008Z,100.00
2019-03-20T19:15:36.699Z,100.00
2019-03-20T19:18:05.533Z,100.00
2019-03-20T19:20:34.206Z,100.00
2019-03-20T19:23:02.900Z,100.00
2019-03-20T19:25:31.553Z,100.00
2019-03-20T19:28:00.106Z,100.00
2019-03-20T19:30:28.800Z,100.00
2019-03-20T19:32:57.518Z,100.00
2019-03-20T19:35:26.137Z,100.00
2019-03-20T19:38:00.207Z,100.00
2019-03-20T19:40:28.671Z,100.00
2019-03-20T19:42:57.313Z,100.00
2019-03-20T19:45:25.877Z,100.00
2019-03-20T19:47:54.556Z,100.00
2019-03-20T19:50:24.239Z,100.00
2019-03-20T19:52:52.877Z,100.00
2019-03-20T19:55:21.534Z,100.00
2019-03-20T19:57:50.227Z,100.00
2019-03-20T20:00:22.934Z,100.00
2019-03-20T20:02:51.647Z,100.00
2019-03-20T20:05:23.908Z,100.00
2019-03-20T20:07:52.653Z,100.00
2019-03-20T20:10:21.399Z,100.00
2019-03-20T20:12:50.157Z,100.00
2019-03-20T20:15:26.178Z,100.00
2019-03-20T20:17:54.812Z,100.00
2019-03-20T20:20:30.691Z,100.00
2019-03-20T20:22:59.337Z,100.00
2019-03-20T20:25:28.026Z,100.00
2019-03-20T20:27:56.662Z,100.00
2019-03-20T20:30:25.319Z,100.00
2019-03-20T20:32:57.167Z,100.00
2019-03-20T20:35:25.731Z,100.00
2019-03-20T20:37:54.408Z,100.00
2019-03-20T20:40:27.600Z,100.00
2019-03-20T20:42:56.243Z,100.00
2019-03-20T20:45:24.920Z,100.00
2019-03-20T20:47:53.472Z,100.00
2019-03-20T20:50:22.160Z,100.00
2019-03-20T20:52:50.802Z,100.00
2019-03-20T20:55:23.116Z,100.00
2019-03-20T20:57:51.742Z,100.00
2019-03-20T21:00:21.850Z,100.00
2019-03-20T21:02:50.586Z,100.00
2019-03-20T21:05:19.214Z,100.00
2019-03-20T21:07:51.103Z,100.00
2019-03-20T21:10:23.736Z,100.00
2019-03-20T21:12:56.733Z,100.00
2019-03-20T21:15:33.759Z,100.00
2019-03-20T21:18:33.482Z,100.00
2019-03-20T21:21:02.121Z,100.00
2019-03-20T21:23:59.196Z,100.00
2019-03-20T21:27:05.532Z,100.00
2019-03-20T21:29:37.074Z,100.00
2019-03-20T21:32:11.080Z,100.00
2019-03-20T21:35:09.117Z,100.00
2019-03-20T21:37:51.831Z,100.00
2019-03-20T21:40:20.447Z,100.00
2019-03-20T21:43:15.841Z,100.00
2019-03-20T21:45:59.140Z,100.00
2019-03-20T21:48:27.632Z,100.00
2019-03-20T21:51:01.882Z,100.00
2019-03-20T21:53:33.470Z,100.00
2019-03-20T21:56:25.995Z,100.00
2019-03-20T21:59:19.847Z,100.00
2019-03-20T22:02:13.757Z,100.00
2019-03-20T22:04:42.401Z,100.00
2019-03-20T22:07:12.037Z,100.00
2019-03-20T22:09:55.641Z,100.00
2019-03-20T22:12:32.740Z,100.00
2019-03-20T22:15:06.818Z,100.00
2019-03-20T22:17:56.551Z,100.00
2019-03-20T22:20:39.949Z,100.00
2019-03-20T22:23:20.313Z,100.00
2019-03-20T22:25:51.870Z,100.00
2019-03-20T22:28:28.970Z,100.00
2019-03-20T22:30:57.532Z,100.00
2019-03-20T22:34:02.104Z,100.00
2019-03-20T22:36:33.523Z,100.00
2019-03-20T22:39:10.895Z,100.00
2019-03-20T22:41:57.091Z,100.00
2019-03-20T22:44:25.615Z,100.00
2019-03-20T22:47:13.696Z,100.00
2019-03-20T22:49:57.149Z,100.00
2019-03-20T22:52:48.336Z,100.00
2019-03-20T22:55:37.753Z,100.00
2019-03-20T22:58:42.307Z,100.00
2019-03-20T23:01:19.479Z,100.00
2019-03-20T23:04:02.573Z,100.00
2019-03-20T23:06:31.072Z,100.00
2019-03-20T23:08:59.758Z,100.00
2019-03-20T23:11:28.471Z,100.00
2019-03-20T23:13:57.041Z,100.00
2019-03-20T23:16:25.599Z,100.00
2019-03-20T23:18:54.240Z,100.00
2019-03-20T23:21:22.796Z,100.00
2019-03-20T23:23:51.382Z,100.00
2019-03-20T23:26:20.022Z,100.00
2019-03-20T23:28:48.598Z,100.00
2019-03-20T23:31:17.090Z,100.00
2019-03-20T23:33:45.701Z,100.00
2019-03-20T23:36:14.372Z,100.00
2019-03-20T23:38:42.876Z,100.00
2019-03-20T23:41:11.397Z,100.00
2019-03-20T23:43:39.897Z,100.00
2019-03-20T23:46:08.530Z,100.00
2019-03-20T23:48:46.028Z,100.00
2019-03-20T23:51:20.413Z,100.00
2019-03-20T23:53:50.966Z,100.00
2019-03-20T23:56:19.637Z,100.00
2019-03-20T23:58:48.255Z,100.00
